createdAt,value
2023-05-17T00:00:17.149Z,92
2023-05-17T00:00:48.784Z,92
2023-05-17T00:01:20.641Z,92
2023-05-17T00:01:52.632Z,92
2023-05-17T00:02:24.807Z,92
2023-05-17T00:02:56.665Z,92
2023-05-17T00:03:28.463Z,92
2023-05-17T00:04:00.645Z,92
2023-05-17T00:04:32.579Z,92
2023-05-17T00:05:04.598Z,92
2023-05-17T00:05:36.387Z,92
2023-05-17T00:06:08.456Z,92
2023-05-17T00:06:40.611Z,92
2023-05-17T00:07:12.493Z,92
2023-05-17T00:07:44.317Z,92
2023-05-17T00:08:16.380Z,92
2023-05-17T00:08:48.384Z,92
2023-05-17T00:09:20.537Z,92
2023-05-17T00:09:52.350Z,93
2023-05-17T00:10:24.249Z,93
2023-05-17T00:10:56.275Z,93
2023-05-17T00:11:28.304Z,93
2023-05-17T00:12:00.169Z,93
2023-05-17T00:12:32.199Z,92
2023-05-17T00:13:04.233Z,92
2023-05-17T00:13:36.223Z,92
2023-05-17T00:14:08.183Z,92
2023-05-17T00:14:40.062Z,92
2023-05-17T00:15:12.204Z,92
2023-05-17T00:15:43.961Z,93
2023-05-17T00:16:15.982Z,92
2023-05-17T00:16:48.033Z,92
2023-05-17T00:17:20.035Z,92
2023-05-17T00:17:52.047Z,92
2023-05-17T00:18:23.930Z,93
2023-05-17T00:18:55.968Z,93
2023-05-17T00:19:28.739Z,92
2023-05-17T00:19:59.895Z,92
2023-05-17T00:20:31.801Z,93
2023-05-17T00:21:03.846Z,93
2023-05-17T00:21:35.816Z,93
2023-05-17T00:22:07.690Z,93
2023-05-17T00:22:39.705Z,93
2023-05-17T00:23:11.723Z,93
2023-05-17T00:23:43.753Z,93
2023-05-17T00:24:15.597Z,93
2023-05-17T00:24:47.705Z,93
2023-05-17T00:25:19.663Z,93
2023-05-17T00:25:51.676Z,93
2023-05-17T00:26:23.479Z,93
2023-05-17T00:26:55.522Z,93
2023-05-17T00:27:27.550Z,93
2023-05-17T00:27:59.581Z,93
2023-05-17T00:28:31.538Z,93
2023-05-17T00:29:03.541Z,93
2023-05-17T00:29:35.469Z,93
2023-05-17T00:30:07.739Z,93
2023-05-17T00:30:39.344Z,93
2023-05-17T00:31:11.511Z,93
2023-05-17T00:31:43.402Z,93
2023-05-17T00:32:15.447Z,93
2023-05-17T00:32:47.313Z,93
2023-05-17T00:33:19.291Z,93
2023-05-17T00:33:51.380Z,93
2023-05-17T00:34:23.208Z,93
2023-05-17T00:34:55.188Z,93
2023-05-17T00:35:27.740Z,93
2023-05-17T00:35:59.209Z,93
2023-05-17T00:36:31.301Z,93
2023-05-17T00:37:03.066Z,93
2023-05-17T00:37:35.089Z,93
2023-05-17T00:38:07.116Z,93
2023-05-17T00:38:39.158Z,93
2023-05-17T00:39:11.084Z,93
2023-05-17T00:39:43.040Z,93
2023-05-17T00:40:15.087Z,93
2023-05-17T00:40:46.897Z,93
2023-05-17T00:41:18.918Z,93
2023-05-17T00:41:51.216Z,93
2023-05-17T00:42:23.026Z,93
2023-05-17T00:42:54.786Z,93
2023-05-17T00:43:26.839Z,93
2023-05-17T00:43:59.028Z,93
2023-05-17T00:44:30.957Z,93
2023-05-17T00:45:02.830Z,93
2023-05-17T00:45:34.738Z,93
2023-05-17T00:46:06.746Z,93
2023-05-17T00:46:38.809Z,93
2023-05-17T00:47:10.877Z,93
2023-05-17T00:47:42.799Z,93
2023-05-17T00:48:14.767Z,93
2023-05-17T00:48:46.749Z,93
2023-05-17T00:49:18.545Z,93
2023-05-17T00:49:50.738Z,93
2023-05-17T00:50:22.669Z,93
2023-05-17T00:50:54.613Z,93
2023-05-17T00:51:26.453Z,93
2023-05-17T00:51:58.491Z,93
2023-05-17T00:52:30.585Z,93
2023-05-17T00:53:02.592Z,93
2023-05-17T00:53:34.383Z,93
2023-05-17T00:54:06.390Z,93
2023-05-17T00:54:38.413Z,93
2023-05-17T00:55:10.512Z,93
2023-05-17T00:55:42.305Z,93
2023-05-17T00:56:14.320Z,93
2023-05-17T00:56:46.361Z,93
2023-05-17T00:57:18.413Z,93
2023-05-17T00:57:50.254Z,93
2023-05-17T00:58:22.312Z,93
2023-05-17T00:58:54.226Z,93
2023-05-17T00:59:26.317Z,93
2023-05-17T00:59:58.092Z,93
2023-05-17T01:00:30.263Z,93
2023-05-17T01:01:02.355Z,93
2023-05-17T01:01:34.021Z,93
2023-05-17T01:02:06.023Z,93
2023-05-17T01:02:38.135Z,93
2023-05-17T01:03:10.188Z,93
2023-05-17T01:03:42.223Z,93
2023-05-17T01:04:14.231Z,93
2023-05-17T01:04:46.014Z,94
2023-05-17T01:05:18.128Z,94
2023-05-17T01:05:49.821Z,94
2023-05-17T01:06:21.909Z,94
2023-05-17T01:06:53.870Z,94
2023-05-17T01:07:25.890Z,94
2023-05-17T01:07:57.722Z,94
2023-05-17T01:08:29.756Z,94
2023-05-17T01:09:01.809Z,94
2023-05-17T01:09:33.829Z,94
2023-05-17T01:10:05.659Z,94
2023-05-17T01:10:37.675Z,94
2023-05-17T01:11:09.751Z,94
2023-05-17T01:11:41.741Z,94
2023-05-17T01:12:13.578Z,94
2023-05-17T01:12:45.631Z,94
2023-05-17T01:13:17.611Z,94
2023-05-17T01:13:49.657Z,94
2023-05-17T01:14:21.490Z,94
2023-05-17T01:14:53.511Z,94
2023-05-17T01:15:25.613Z,94
2023-05-17T01:15:57.671Z,94
2023-05-17T01:16:29.392Z,94
2023-05-17T01:17:01.573Z,94
2023-05-17T01:17:33.590Z,94
2023-05-17T01:18:05.543Z,94
2023-05-17T01:18:37.400Z,94
2023-05-17T01:19:09.431Z,94
2023-05-17T01:19:41.524Z,94
2023-05-17T01:20:13.645Z,94
2023-05-17T01:20:45.239Z,94
2023-05-17T01:21:17.224Z,94
2023-05-17T01:21:49.269Z,94
2023-05-17T01:22:21.498Z,94
2023-05-17T01:22:53.153Z,94
2023-05-17T01:23:25.176Z,94
2023-05-17T01:23:57.162Z,94
2023-05-17T01:24:29.215Z,94
2023-05-17T01:25:01.317Z,94
2023-05-17T01:25:33.073Z,94
2023-05-17T01:26:05.193Z,94
2023-05-17T01:26:37.117Z,94
2023-05-17T01:27:09.240Z,94
2023-05-17T01:27:41.096Z,94
2023-05-17T01:28:13.032Z,94
2023-05-17T01:28:45.051Z,94
2023-05-17T01:29:16.845Z,94
2023-05-17T01:29:48.926Z,94
2023-05-17T01:30:21.171Z,94
2023-05-17T01:30:52.973Z,94
2023-05-17T01:31:24.765Z,94
2023-05-17T01:31:56.797Z,94
2023-05-17T01:32:28.929Z,94
2023-05-17T01:33:01.186Z,94
2023-05-17T01:33:32.877Z,94
2023-05-17T01:34:04.794Z,94
2023-05-17T01:34:36.768Z,94
2023-05-17T01:35:09.070Z,94
2023-05-17T01:35:40.748Z,94
2023-05-17T01:36:12.691Z,94
2023-05-17T01:36:44.680Z,94
2023-05-17T01:37:16.669Z,94
2023-05-17T01:37:48.506Z,94
2023-05-17T01:38:20.657Z,94
2023-05-17T01:38:52.664Z,94
2023-05-17T01:39:24.558Z,94
2023-05-17T01:39:56.439Z,94
2023-05-17T01:40:28.471Z,94
2023-05-17T01:41:00.615Z,94
2023-05-17T01:41:32.744Z,94
2023-05-17T01:42:04.342Z,94
2023-05-17T01:42:36.472Z,94
2023-05-17T01:43:08.443Z,94
2023-05-17T01:43:40.261Z,94
2023-05-17T01:44:12.319Z,94
2023-05-17T01:44:44.308Z,93
2023-05-17T01:45:17.301Z,93
2023-05-17T01:45:48.169Z,93
2023-05-17T01:46:20.373Z,93
2023-05-17T01:46:52.318Z,93
2023-05-17T01:47:24.229Z,93
2023-05-17T01:47:56.118Z,93
2023-05-17T01:48:28.133Z,93
2023-05-17T01:49:00.214Z,93
2023-05-17T01:49:32.154Z,93
2023-05-17T01:50:04.050Z,93
2023-05-17T01:50:36.020Z,93
2023-05-17T01:51:08.082Z,93
2023-05-17T01:51:40.075Z,93
2023-05-17T01:52:12.068Z,93
2023-05-17T01:52:43.968Z,93
2023-05-17T01:53:15.967Z,93
2023-05-17T01:53:47.984Z,93
2023-05-17T01:54:19.870Z,93
2023-05-17T01:54:51.964Z,94
2023-05-17T01:55:23.920Z,94
2023-05-17T01:55:55.695Z,93
2023-05-17T01:56:27.922Z,94
2023-05-17T01:56:59.750Z,94
2023-05-17T01:57:31.802Z,93
2023-05-17T01:58:03.610Z,94
2023-05-17T01:58:35.669Z,93
2023-05-17T01:59:07.779Z,93
2023-05-17T01:59:39.778Z,93
2023-05-17T02:00:12.338Z,93
2023-05-17T02:00:43.632Z,93
2023-05-17T02:01:15.620Z,93
2023-05-17T02:01:47.685Z,93
2023-05-17T02:02:19.488Z,93
2023-05-17T02:02:51.561Z,93
2023-05-17T02:03:23.564Z,93
2023-05-17T02:03:55.659Z,93
2023-05-17T02:04:27.442Z,93
2023-05-17T02:04:59.565Z,93
2023-05-17T02:05:31.525Z,93
2023-05-17T02:06:03.285Z,93
2023-05-17T02:06:35.300Z,93
2023-05-17T02:07:07.413Z,93
2023-05-17T02:07:39.354Z,93
2023-05-17T02:08:11.515Z,93
2023-05-17T02:08:43.249Z,93
2023-05-17T02:09:15.262Z,94
2023-05-17T02:09:47.278Z,93
2023-05-17T02:10:19.123Z,93
2023-05-17T02:10:51.404Z,93
2023-05-17T02:11:23.203Z,94
2023-05-17T02:11:55.207Z,94
2023-05-17T02:12:27.006Z,94
2023-05-17T02:12:59.022Z,94
2023-05-17T02:13:31.279Z,94
2023-05-17T02:14:03.097Z,93
2023-05-17T02:14:34.933Z,94
2023-05-17T02:15:07.249Z,94
2023-05-17T02:15:39.002Z,93
2023-05-17T02:16:11.332Z,93
2023-05-17T02:16:42.893Z,94
2023-05-17T02:17:14.891Z,94
2023-05-17T02:17:47.138Z,94
2023-05-17T02:18:19.008Z,93
2023-05-17T02:18:50.973Z,93
2023-05-17T02:19:22.875Z,93
2023-05-17T02:19:55.222Z,93
2023-05-17T02:20:26.854Z,93
2023-05-17T02:20:58.663Z,93
2023-05-17T02:21:30.947Z,93
2023-05-17T02:22:02.745Z,93
2023-05-17T02:22:34.743Z,93
2023-05-17T02:23:06.653Z,93
2023-05-17T02:23:38.625Z,93
2023-05-17T02:24:10.926Z,93
2023-05-17T02:24:42.756Z,94
2023-05-17T02:25:14.511Z,93
2023-05-17T02:25:46.556Z,93
2023-05-17T02:26:18.567Z,93
2023-05-17T02:26:50.724Z,93
2023-05-17T02:27:22.677Z,94
2023-05-17T02:27:54.434Z,94
2023-05-17T02:28:26.687Z,94
2023-05-17T02:28:58.489Z,94
2023-05-17T02:29:30.461Z,93
2023-05-17T02:30:02.504Z,93
2023-05-17T02:30:34.419Z,94
2023-05-17T02:31:06.419Z,93
2023-05-17T02:31:38.249Z,93
2023-05-17T02:32:10.328Z,94
2023-05-17T02:32:42.572Z,94
2023-05-17T02:33:14.381Z,94
2023-05-17T02:33:46.233Z,94
2023-05-17T02:34:18.187Z,94
2023-05-17T02:34:50.268Z,93
2023-05-17T02:35:22.156Z,94
2023-05-17T02:35:54.079Z,93
2023-05-17T02:36:26.113Z,93
2023-05-17T02:36:58.134Z,93
2023-05-17T02:37:30.215Z,93
2023-05-17T02:38:02.058Z,93
2023-05-17T02:38:34.007Z,93
2023-05-17T02:39:06.041Z,93
2023-05-17T02:39:37.882Z,93
2023-05-17T02:40:10.005Z,93
2023-05-17T02:40:41.949Z,93
2023-05-17T02:41:13.947Z,93
2023-05-17T02:41:45.780Z,93
2023-05-17T02:42:17.834Z,93
2023-05-17T02:42:49.834Z,93
2023-05-17T02:43:21.965Z,93
2023-05-17T02:43:53.688Z,93
2023-05-17T02:44:25.736Z,93
2023-05-17T02:44:57.765Z,93
2023-05-17T02:45:30.105Z,93
2023-05-17T02:46:01.635Z,93
2023-05-17T02:46:33.652Z,93
2023-05-17T02:47:05.727Z,93
2023-05-17T02:47:37.913Z,93
2023-05-17T02:48:09.646Z,93
2023-05-17T02:48:41.592Z,93
2023-05-17T02:49:13.570Z,93
2023-05-17T02:49:45.607Z,93
2023-05-17T02:50:17.438Z,93
2023-05-17T02:50:49.493Z,93
2023-05-17T02:51:21.550Z,93
2023-05-17T02:51:53.652Z,93
2023-05-17T02:52:25.352Z,93
2023-05-17T02:52:57.380Z,93
2023-05-17T02:53:29.435Z,93
2023-05-17T02:54:01.479Z,92
2023-05-17T02:54:33.672Z,92
2023-05-17T02:55:05.306Z,93
2023-05-17T02:55:37.322Z,92
2023-05-17T02:56:09.602Z,92
2023-05-17T02:56:41.433Z,92
2023-05-17T02:57:13.214Z,92
2023-05-17T02:57:45.260Z,92
2023-05-17T02:58:17.248Z,92
2023-05-17T02:58:49.065Z,92
2023-05-17T02:59:21.229Z,92
2023-05-17T02:59:53.147Z,92
2023-05-17T03:00:25.295Z,92
2023-05-17T03:00:57.018Z,92
2023-05-17T03:01:29.024Z,92
2023-05-17T03:02:01.189Z,92
2023-05-17T03:02:33.156Z,92
2023-05-17T03:03:05.027Z,92
2023-05-17T03:03:37.105Z,92
2023-05-17T03:04:09.060Z,92
2023-05-17T03:04:41.336Z,92
2023-05-17T03:05:12.840Z,92
2023-05-17T03:05:45.259Z,92
2023-05-17T03:06:16.921Z,92
2023-05-17T03:06:48.940Z,92
2023-05-17T03:07:21.064Z,92
2023-05-17T03:07:52.836Z,92
2023-05-17T03:08:24.807Z,92
2023-05-17T03:08:56.866Z,92
2023-05-17T03:09:28.660Z,92
2023-05-17T03:10:00.860Z,92
2023-05-17T03:10:32.724Z,92
2023-05-17T03:11:04.739Z,92
2023-05-17T03:11:36.553Z,92
2023-05-17T03:12:08.628Z,92
2023-05-17T03:12:40.769Z,92
2023-05-17T03:13:12.482Z,92
2023-05-17T03:13:44.533Z,92
2023-05-17T03:14:16.502Z,92
2023-05-17T03:14:48.585Z,91
2023-05-17T03:15:20.720Z,91
2023-05-17T03:15:52.597Z,91
2023-05-17T03:16:24.460Z,91
2023-05-17T03:16:56.486Z,91
2023-05-17T03:17:28.553Z,91
2023-05-17T03:18:00.472Z,91
2023-05-17T03:18:32.551Z,92
2023-05-17T03:19:04.578Z,92
2023-05-17T03:19:36.244Z,92
2023-05-17T03:20:08.301Z,91
2023-05-17T03:20:40.352Z,91
2023-05-17T03:21:12.319Z,91
2023-05-17T03:21:44.146Z,91
2023-05-17T03:22:16.270Z,91
2023-05-17T03:22:48.211Z,91
2023-05-17T03:23:20.338Z,91
2023-05-17T03:23:52.332Z,91
2023-05-17T03:24:24.123Z,91
2023-05-17T03:24:56.115Z,91
2023-05-17T03:25:28.378Z,91
2023-05-17T03:25:59.975Z,91
2023-05-17T03:26:32.042Z,91
2023-05-17T03:27:04.065Z,91
2023-05-17T03:27:36.115Z,91
2023-05-17T03:28:07.938Z,91
2023-05-17T03:28:39.935Z,91
2023-05-17T03:29:12.270Z,91
2023-05-17T03:29:43.980Z,91
2023-05-17T03:30:16.039Z,91
2023-05-17T03:30:47.903Z,91
2023-05-17T03:31:19.856Z,91
2023-05-17T03:31:51.905Z,90
2023-05-17T03:32:23.715Z,90
2023-05-17T03:32:55.797Z,91
2023-05-17T03:33:27.869Z,91
2023-05-17T03:34:00.043Z,91
2023-05-17T03:34:31.645Z,91
2023-05-17T03:35:03.718Z,91
2023-05-17T03:35:35.782Z,91
2023-05-17T03:36:07.767Z,91
2023-05-17T03:36:39.595Z,90
2023-05-17T03:37:11.752Z,90
2023-05-17T03:37:43.584Z,90
2023-05-17T03:38:15.617Z,90
2023-05-17T03:38:47.469Z,90
2023-05-17T03:39:19.487Z,90
2023-05-17T03:39:52.865Z,90
2023-05-17T03:40:23.543Z,90
2023-05-17T03:40:55.739Z,91
2023-05-17T03:41:27.506Z,91
2023-05-17T03:41:59.535Z,90
2023-05-17T03:42:31.567Z,90
2023-05-17T03:43:03.362Z,90
2023-05-17T03:43:35.659Z,90
2023-05-17T03:44:07.467Z,90
2023-05-17T03:44:39.503Z,90
2023-05-17T03:45:11.511Z,90
2023-05-17T03:45:43.343Z,90
2023-05-17T03:46:15.358Z,90
2023-05-17T03:46:47.563Z,91
2023-05-17T03:47:19.089Z,91
2023-05-17T03:47:51.525Z,91
2023-05-17T03:48:23.334Z,91
2023-05-17T03:48:55.404Z,91
2023-05-17T03:49:27.004Z,91
2023-05-17T03:49:59.128Z,91
2023-05-17T03:50:31.311Z,91
2023-05-17T03:51:03.094Z,91
2023-05-17T03:51:35.170Z,91
2023-05-17T03:52:06.980Z,91
2023-05-17T03:52:39.101Z,91
2023-05-17T03:53:11.089Z,91
2023-05-17T03:53:42.970Z,91
2023-05-17T03:54:14.978Z,91
2023-05-17T03:54:48.228Z,91
2023-05-17T03:55:18.740Z,91
2023-05-17T03:55:51.261Z,91
2023-05-17T03:56:23.030Z,91
2023-05-17T03:56:54.996Z,91
2023-05-17T03:57:26.785Z,91
2023-05-17T03:57:58.929Z,91
2023-05-17T03:58:31.066Z,91
2023-05-17T03:59:02.931Z,91
2023-05-17T03:59:35.062Z,91
2023-05-17T04:00:07.318Z,91
2023-05-17T04:00:38.902Z,91
2023-05-17T04:01:11.061Z,91
2023-05-17T04:01:42.474Z,91
2023-05-17T04:02:14.697Z,91
2023-05-17T04:02:46.882Z,91
2023-05-17T04:03:20.111Z,91
2023-05-17T04:03:50.672Z,91
2023-05-17T04:04:22.756Z,91
2023-05-17T04:04:54.717Z,91
2023-05-17T04:05:26.915Z,91
2023-05-17T04:05:58.423Z,91
2023-05-17T04:06:30.631Z,91
2023-05-17T04:07:02.688Z,91
2023-05-17T04:07:34.982Z,91
2023-05-17T04:08:06.256Z,91
2023-05-17T04:08:38.374Z,91
2023-05-17T04:09:10.639Z,91
2023-05-17T04:09:42.525Z,91
2023-05-17T04:10:14.377Z,90
2023-05-17T04:10:46.173Z,91
2023-05-17T04:11:18.523Z,91
2023-05-17T04:11:50.429Z,91
2023-05-17T04:12:22.346Z,91
2023-05-17T04:12:54.303Z,91
2023-05-17T04:13:26.237Z,91
2023-05-17T04:13:58.350Z,91
2023-05-17T04:14:30.115Z,91
2023-05-17T04:15:02.321Z,91
2023-05-17T04:15:34.255Z,91
2023-05-17T04:16:06.175Z,91
2023-05-17T04:16:38.040Z,91
2023-05-17T04:17:10.087Z,91
2023-05-17T04:17:42.191Z,91
2023-05-17T04:18:13.919Z,91
2023-05-17T04:18:46.110Z,91
2023-05-17T04:19:18.077Z,91
2023-05-17T04:19:50.178Z,91
2023-05-17T04:20:21.795Z,91
2023-05-17T04:20:53.836Z,91
2023-05-17T04:21:25.892Z,91
2023-05-17T04:21:57.801Z,91
2023-05-17T04:22:29.726Z,91
2023-05-17T04:23:01.834Z,91
2023-05-17T04:23:33.841Z,91
2023-05-17T04:24:05.774Z,91
2023-05-17T04:24:37.694Z,91
2023-05-17T04:25:09.812Z,91
2023-05-17T04:25:41.762Z,91
2023-05-17T04:26:13.790Z,91
2023-05-17T04:26:45.517Z,91
2023-05-17T04:27:17.556Z,91
2023-05-17T04:27:49.687Z,91
2023-05-17T04:28:21.661Z,91
2023-05-17T04:28:53.379Z,92
2023-05-17T04:29:25.504Z,92
2023-05-17T04:29:57.582Z,92
2023-05-17T04:30:29.757Z,92
2023-05-17T04:31:01.495Z,92
2023-05-17T04:31:33.411Z,92
2023-05-17T04:32:05.462Z,92
2023-05-17T04:32:37.369Z,92
2023-05-17T04:33:10.991Z,92
2023-05-17T04:33:41.477Z,92
2023-05-17T04:34:13.495Z,92
2023-05-17T04:34:45.553Z,92
2023-05-17T04:35:17.311Z,92
2023-05-17T04:35:49.359Z,92
2023-05-17T04:36:21.344Z,92
2023-05-17T04:36:53.149Z,92
2023-05-17T04:37:25.106Z,92
2023-05-17T04:37:57.234Z,92
2023-05-17T04:38:29.079Z,92
2023-05-17T04:39:01.113Z,92
2023-05-17T04:39:33.028Z,92
2023-05-17T04:40:05.094Z,92
2023-05-17T04:40:37.210Z,92
2023-05-17T04:41:09.672Z,92
2023-05-17T04:41:41.098Z,92
2023-05-17T04:42:12.881Z,92
2023-05-17T04:42:44.882Z,92
2023-05-17T04:43:16.761Z,92
2023-05-17T04:43:48.768Z,92
2023-05-17T04:44:20.901Z,92
2023-05-17T04:44:52.858Z,92
2023-05-17T04:45:24.725Z,92
2023-05-17T04:45:56.924Z,92
2023-05-17T04:46:28.777Z,92
2023-05-17T04:47:00.864Z,92
2023-05-17T04:47:32.642Z,92
2023-05-17T04:48:04.797Z,92
2023-05-17T04:48:36.896Z,92
2023-05-17T04:49:09.101Z,92
2023-05-17T04:49:40.794Z,92
2023-05-17T04:50:12.709Z,91
2023-05-17T04:50:44.640Z,91
2023-05-17T04:51:16.632Z,90
2023-05-17T04:51:48.511Z,90
2023-05-17T04:52:20.818Z,90
2023-05-17T04:52:52.379Z,89
2023-05-17T04:53:24.341Z,89
2023-05-17T04:53:56.499Z,88
2023-05-17T04:54:28.431Z,88
2023-05-17T04:55:00.466Z,88
2023-05-17T04:55:32.399Z,88
2023-05-17T04:56:04.511Z,87
2023-05-17T04:56:36.521Z,87
2023-05-17T04:57:08.276Z,86
2023-05-17T04:57:40.469Z,86
2023-05-17T04:58:12.486Z,86
2023-05-17T04:58:44.282Z,86
2023-05-17T04:59:16.201Z,86
2023-05-17T04:59:48.304Z,86
2023-05-17T05:00:20.577Z,86
2023-05-17T05:00:52.255Z,86
2023-05-17T05:01:24.338Z,85
2023-05-17T05:01:56.166Z,86
2023-05-17T05:02:28.272Z,85
2023-05-17T05:03:00.173Z,85
2023-05-17T05:03:32.161Z,85
2023-05-17T05:04:04.336Z,85
2023-05-17T05:04:36.283Z,85
2023-05-17T05:05:08.074Z,85
2023-05-17T05:05:39.983Z,85
2023-05-17T05:06:11.927Z,85
2023-05-17T05:06:44.207Z,85
2023-05-17T05:07:15.825Z,85
2023-05-17T05:07:47.900Z,85
2023-05-17T05:08:19.958Z,85
2023-05-17T05:08:52.050Z,85
2023-05-17T05:09:23.868Z,85
2023-05-17T05:09:55.870Z,85
2023-05-17T05:10:27.852Z,85
2023-05-17T05:10:59.677Z,85
2023-05-17T05:11:31.680Z,85
2023-05-17T05:12:03.725Z,85
2023-05-17T05:12:35.860Z,85
2023-05-17T05:13:07.604Z,85
2023-05-17T05:13:39.590Z,85
2023-05-17T05:14:11.908Z,85
2023-05-17T05:14:43.655Z,85
2023-05-17T05:15:15.552Z,85
2023-05-17T05:15:47.520Z,85
2023-05-17T05:16:19.848Z,85
2023-05-17T05:16:51.764Z,85
2023-05-17T05:17:23.449Z,85
2023-05-17T05:17:55.481Z,84
2023-05-17T05:18:27.782Z,84
2023-05-17T05:18:59.729Z,84
2023-05-17T05:19:31.822Z,84
2023-05-17T05:20:03.489Z,84
2023-05-17T05:20:35.390Z,84
2023-05-17T05:21:07.428Z,83
2023-05-17T05:21:39.172Z,83
2023-05-17T05:22:11.585Z,83
2023-05-17T05:22:43.802Z,83
2023-05-17T05:23:15.272Z,83
2023-05-17T05:23:47.062Z,83
2023-05-17T05:24:19.100Z,83
2023-05-17T05:24:51.328Z,83
2023-05-17T05:25:23.173Z,83
2023-05-17T05:25:55.084Z,83
2023-05-17T05:26:27.198Z,83
2023-05-17T05:26:59.236Z,83
2023-05-17T05:27:31.178Z,83
2023-05-17T05:28:03.143Z,83
2023-05-17T05:28:35.196Z,83
2023-05-17T05:29:07.086Z,83
2023-05-17T05:29:38.916Z,83
2023-05-17T05:30:11.431Z,83
2023-05-17T05:30:43.198Z,83
2023-05-17T05:31:14.977Z,83
2023-05-17T05:31:46.689Z,82
2023-05-17T05:32:18.721Z,82
2023-05-17T05:32:51.309Z,81
2023-05-17T05:33:23.040Z,82
2023-05-17T05:33:54.988Z,81
2023-05-17T05:34:26.658Z,81
2023-05-17T05:34:58.819Z,81
2023-05-17T05:35:31.230Z,81
2023-05-17T05:36:02.823Z,81
2023-05-17T05:36:34.801Z,81
2023-05-17T05:37:06.674Z,80
2023-05-17T05:37:38.541Z,81
2023-05-17T05:38:10.832Z,80
2023-05-17T05:38:42.589Z,81
2023-05-17T05:39:14.612Z,80
2023-05-17T05:39:46.397Z,80
2023-05-17T05:40:18.525Z,79
2023-05-17T05:40:50.598Z,79
2023-05-17T05:41:22.656Z,79
2023-05-17T05:41:54.332Z,80
2023-05-17T05:42:26.500Z,80
2023-05-17T05:42:58.516Z,80
2023-05-17T05:43:31.057Z,79
2023-05-17T05:44:02.404Z,79
2023-05-17T05:44:35.029Z,79
2023-05-17T05:45:06.666Z,80
2023-05-17T05:45:38.447Z,80
2023-05-17T05:46:10.449Z,80
2023-05-17T05:46:42.278Z,80
2023-05-17T05:47:14.299Z,80
2023-05-17T05:47:46.366Z,80
2023-05-17T05:48:18.206Z,79
2023-05-17T05:48:50.255Z,79
2023-05-17T05:49:22.278Z,79
2023-05-17T05:49:54.065Z,79
2023-05-17T05:50:26.128Z,78
2023-05-17T05:50:58.098Z,78
2023-05-17T05:51:30.324Z,78
2023-05-17T05:52:02.006Z,78
2023-05-17T05:52:33.899Z,78
2023-05-17T05:53:18.228Z,77
2023-05-17T05:53:37.964Z,77
2023-05-17T05:54:09.901Z,77
2023-05-17T05:54:42.275Z,77
2023-05-17T05:55:13.855Z,77
2023-05-17T05:55:45.849Z,76
2023-05-17T05:56:17.801Z,76
2023-05-17T05:56:49.863Z,76
2023-05-17T05:57:21.903Z,75
2023-05-17T05:57:53.880Z,76
2023-05-17T05:58:25.707Z,75
2023-05-17T05:58:57.829Z,75
2023-05-17T05:59:29.889Z,75
2023-05-17T06:00:01.900Z,75
2023-05-17T06:00:33.869Z,75
2023-05-17T06:01:06.565Z,75
2023-05-17T06:01:37.704Z,75
2023-05-17T06:02:09.551Z,75
2023-05-17T06:02:41.717Z,75
2023-05-17T06:03:13.556Z,76
2023-05-17T06:03:45.588Z,76
2023-05-17T06:04:17.419Z,76
2023-05-17T06:04:49.562Z,76
2023-05-17T06:05:21.724Z,75
2023-05-17T06:05:53.554Z,75
2023-05-17T06:06:25.519Z,75
2023-05-17T06:06:57.551Z,74
2023-05-17T06:07:29.501Z,74
2023-05-17T06:08:01.567Z,73
2023-05-17T06:08:33.291Z,73
2023-05-17T06:09:05.311Z,73
2023-05-17T06:09:37.218Z,73
2023-05-17T06:10:09.665Z,73
2023-05-17T06:10:41.312Z,73
2023-05-17T06:11:13.229Z,73
2023-05-17T06:11:45.243Z,73
2023-05-17T06:12:17.289Z,72
2023-05-17T06:12:49.212Z,72
2023-05-17T06:13:21.305Z,72
2023-05-17T06:13:53.243Z,72
2023-05-17T06:14:25.000Z,71
2023-05-17T06:14:57.589Z,71
2023-05-17T06:15:29.197Z,70
2023-05-17T06:16:01.408Z,71
2023-05-17T06:16:33.036Z,71
2023-05-17T06:17:04.959Z,71
2023-05-17T06:17:37.098Z,71
2023-05-17T06:18:09.320Z,70
2023-05-17T06:18:41.047Z,70
2023-05-17T06:19:13.088Z,69
2023-05-17T06:19:44.954Z,69
2023-05-17T06:20:16.761Z,69
2023-05-17T06:20:48.789Z,69
2023-05-17T06:21:21.098Z,69
2023-05-17T06:21:53.029Z,69
2023-05-17T06:22:24.873Z,68
2023-05-17T06:22:57.336Z,68
2023-05-17T06:23:28.717Z,69
2023-05-17T06:24:02.763Z,68
2023-05-17T06:24:33.277Z,68
2023-05-17T06:25:04.532Z,68
2023-05-17T06:25:36.568Z,68
2023-05-17T06:26:08.691Z,67
2023-05-17T06:26:40.798Z,68
2023-05-17T06:27:12.586Z,67
2023-05-17T06:27:44.746Z,68
2023-05-17T06:28:16.580Z,66
2023-05-17T06:28:48.445Z,67
2023-05-17T06:29:20.718Z,67
2023-05-17T06:29:52.744Z,67
2023-05-17T06:30:24.697Z,67
2023-05-17T06:30:56.816Z,66
2023-05-17T06:31:28.438Z,66
2023-05-17T06:32:00.592Z,67
2023-05-17T06:32:32.621Z,66
2023-05-17T06:33:04.475Z,67
2023-05-17T06:33:36.388Z,66
2023-05-17T06:34:08.495Z,66
2023-05-17T06:35:09.495Z,65
2023-05-17T06:35:54.668Z,65
2023-05-17T06:36:13.398Z,66
2023-05-17T06:36:44.236Z,66
2023-05-17T06:37:29.116Z,66
2023-05-17T06:38:11.529Z,66
2023-05-17T06:38:47.056Z,66
2023-05-17T06:39:22.072Z,67
2023-05-17T06:39:56.013Z,66
2023-05-17T06:40:22.832Z,66
2023-05-17T06:40:54.977Z,67
2023-05-17T06:41:25.065Z,66
2023-05-17T06:41:59.603Z,66
2023-05-17T06:42:30.229Z,67
2023-05-17T06:42:59.399Z,66
2023-05-17T06:43:37.049Z,66
2023-05-17T06:44:08.565Z,66
2023-05-17T06:44:38.255Z,66
2023-05-17T06:45:07.714Z,65
2023-05-17T06:45:42.769Z,66
2023-05-17T06:46:11.999Z,65
2023-05-17T06:46:48.926Z,65
2023-05-17T06:47:18.045Z,64
2023-05-17T06:47:48.064Z,64
2023-05-17T06:48:23.702Z,65
2023-05-17T06:49:12.434Z,64
2023-05-17T06:49:41.754Z,65
2023-05-17T06:50:11.363Z,65
2023-05-17T06:50:47.146Z,65
2023-05-17T06:51:16.222Z,66
2023-05-17T06:51:52.946Z,67
2023-05-17T06:52:21.955Z,67
2023-05-17T06:52:51.250Z,67
2023-05-17T06:53:28.172Z,67
2023-05-17T06:54:20.625Z,69
2023-05-17T06:54:51.425Z,69
2023-05-17T06:55:24.263Z,69
2023-05-17T06:55:55.362Z,69
2023-05-17T06:56:28.902Z,69
2023-05-17T06:56:59.325Z,69
2023-05-17T06:57:32.407Z,69
2023-05-17T06:58:03.086Z,69
2023-05-17T06:58:36.166Z,69
2023-05-17T06:59:07.221Z,68
2023-05-17T06:59:40.115Z,68
2023-05-17T07:00:11.968Z,68
2023-05-17T07:00:43.952Z,69
2023-05-17T07:01:15.090Z,69
2023-05-17T07:01:48.096Z,69
2023-05-17T07:02:19.105Z,69
2023-05-17T07:02:51.986Z,68
2023-05-17T07:03:23.162Z,66
2023-05-17T07:03:56.156Z,67
2023-05-17T07:04:27.395Z,67
2023-05-17T07:04:59.958Z,67
2023-05-17T07:05:31.469Z,67
2023-05-17T07:06:03.976Z,68
2023-05-17T07:06:35.170Z,67
2023-05-17T07:07:07.715Z,67
2023-05-17T07:07:38.827Z,67
2023-05-17T07:08:11.905Z,67
2023-05-17T07:08:42.687Z,67
2023-05-17T07:09:15.559Z,66
2023-05-17T07:09:46.715Z,66
2023-05-17T07:10:19.677Z,67
2023-05-17T07:10:51.731Z,67
2023-05-17T07:11:23.425Z,67
2023-05-17T07:11:54.610Z,67
2023-05-17T07:12:27.636Z,67
2023-05-17T07:12:58.562Z,67
2023-05-17T07:13:31.498Z,68
2023-05-17T07:14:02.562Z,67
2023-05-17T07:14:35.371Z,68
2023-05-17T07:15:06.664Z,68
2023-05-17T07:15:39.349Z,68
2023-05-17T07:16:10.635Z,68
2023-05-17T07:16:43.474Z,69
2023-05-17T07:17:14.299Z,68
2023-05-17T07:17:47.126Z,69
2023-05-17T07:18:18.479Z,69
2023-05-17T07:18:51.458Z,68
2023-05-17T07:19:22.574Z,68
2023-05-17T07:19:55.262Z,67
2023-05-17T07:20:26.349Z,67
2023-05-17T07:20:59.259Z,67
2023-05-17T07:21:30.238Z,66
2023-05-17T07:22:03.318Z,66
2023-05-17T07:22:34.212Z,66
2023-05-17T07:23:07.371Z,67
2023-05-17T07:23:38.480Z,66
2023-05-17T07:24:11.321Z,67
2023-05-17T07:24:42.104Z,66
2023-05-17T07:25:14.850Z,67
2023-05-17T07:25:45.945Z,65
2023-05-17T07:26:18.896Z,65
2023-05-17T07:26:52.202Z,66
2023-05-17T07:27:22.989Z,65
2023-05-17T07:27:53.909Z,66
2023-05-17T07:28:26.825Z,66
2023-05-17T07:28:57.973Z,65
2023-05-17T07:29:30.870Z,63
2023-05-17T07:30:02.099Z,64
2023-05-17T07:30:34.834Z,64
2023-05-17T07:31:06.071Z,64
2023-05-17T07:31:38.614Z,64
2023-05-17T07:32:09.723Z,65
2023-05-17T07:32:42.592Z,64
2023-05-17T07:33:13.872Z,64
2023-05-17T07:33:46.508Z,63
2023-05-17T07:34:17.660Z,64
2023-05-17T07:34:50.563Z,63
2023-05-17T07:35:22.008Z,64
2023-05-17T07:35:54.455Z,64
2023-05-17T07:36:25.574Z,64
2023-05-17T07:36:59.395Z,64
2023-05-17T07:37:29.621Z,65